Time;durP1;ratioP1;P1;durP2;ratioP2;P2;SDS_P1;SDS_P2;PMS_P1;PMS_P2;Temp;Humidity;BMP_temperature;BMP_pressure;BME280_temperature;BME280_humidity;BME280_pressure;Samples;Min_cycle;Max_cycle;Signal;HPM_P1;HPM_P2
2023/05/20 00:00:09;;;;;;;13.57;4.80;;;10.80;99.90;;;;;;5051674;28;20052;-76
2023/05/20 00:02:35;;;;;;;15.30;4.90;;;10.80;99.90;;;;;;5046315;28;20044;-76
2023/05/20 00:05:01;;;;;;;12.75;4.65;;;10.70;99.90;;;;;;5052179;28;20061;-76
2023/05/20 00:07:26;;;;;;;13.57;4.97;;;10.70;99.90;;;;;;5036050;28;20502;-76
2023/05/20 00:09:52;;;;;;;17.52;5.05;;;10.70;99.90;;;;;;5052440;28;20040;-76
2023/05/20 00:12:18;;;;;;;13.27;4.57;;;10.70;99.90;;;;;;5031622;28;20119;-76
2023/05/20 00:14:44;;;;;;;15.73;5.68;;;10.70;99.90;;;;;;5049936;28;20123;-76
2023/05/20 00:17:09;;;;;;;12.55;5.07;;;10.60;99.90;;;;;;5041947;28;20037;-76
2023/05/20 00:19:35;;;;;;;12.68;4.90;;;10.60;99.90;;;;;;5056048;28;20047;-76
2023/05/20 00:22:01;;;;;;;16.30;5.25;;;10.60;99.90;;;;;;5051790;28;20347;-76
2023/05/20 00:24:27;;;;;;;15.65;5.25;;;10.60;99.90;;;;;;5041385;28;20142;-76
2023/05/20 00:26:52;;;;;;;12.10;4.55;;;10.60;99.90;;;;;;5035304;28;20032;-76
2023/05/20 00:29:20;;;;;;;17.50;5.32;;;10.50;99.90;;;;;;5047990;28;20122;-76
2023/05/20 00:31:46;;;;;;;16.45;5.07;;;10.50;99.90;;;;;;5050136;28;20482;-76
2023/05/20 00:34:12;;;;;;;15.18;4.97;;;10.50;99.90;;;;;;5046420;28;20036;-76
2023/05/20 00:36:38;;;;;;;10.15;4.75;;;10.50;99.90;;;;;;5060506;28;20054;-76
2023/05/20 00:39:04;;;;;;;12.60;4.82;;;10.50;99.90;;;;;;5028374;28;20040;-76
2023/05/20 00:41:30;;;;;;;12.25;4.65;;;11.60;99.90;;;;;;5036651;28;20048;-76
2023/05/20 00:43:56;;;;;;;12.35;4.57;;;10.40;99.90;;;;;;5069086;28;20033;-76
2023/05/20 00:46:22;;;;;;;14.35;5.28;;;10.40;99.90;;;;;;5050098;28;20043;-76
2023/05/20 00:48:49;;;;;;;13.13;4.90;;;10.40;99.90;;;;;;5021607;28;20051;-76
2023/05/20 00:51:16;;;;;;;12.35;4.75;;;10.40;99.90;;;;;;5025256;28;20052;-76
2023/05/20 00:53:42;;;;;;;14.38;5.03;;;10.40;99.90;;;;;;5032881;28;20127;-76
2023/05/20 00:56:08;;;;;;;12.73;4.47;;;10.30;99.90;;;;;;5047387;28;20036;-76
2023/05/20 00:58:37;;;;;;;13.82;4.97;;;10.30;99.90;;;;;;5048011;28;20090;-76
2023/05/20 01:01:04;;;;;;;14.25;5.00;;;10.30;99.90;;;;;;5043226;28;20119;-76
2023/05/20 01:03:30;;;;;;;11.50;4.90;;;10.30;99.90;;;;;;5047742;28;20403;-75
2023/05/20 01:05:56;;;;;;;13.07;5.40;;;10.30;99.90;;;;;;5034769;28;20098;-76
2023/05/20 01:08:24;;;;;;;14.25;4.63;;;10.30;99.90;;;;;;5038827;28;20036;-76
2023/05/20 01:10:58;;;;;;;13.77;4.93;;;10.30;99.90;;;;;;5053496;28;20048;-76
2023/05/20 01:13:31;;;;;;;13.43;4.60;;;10.30;99.90;;;;;;5061001;28;20044;-76
2023/05/20 01:15:59;;;;;;;;;;;10.30;99.90;;;;;;5057410;28;20052;-76
2023/05/20 01:18:28;;;;;;;12.55;4.57;;;10.30;99.90;;;;;;5034081;28;19956;-76
2023/05/20 01:21:00;;;;;;;12.90;4.65;;;10.20;99.90;;;;;;5035127;28;20040;-76
2023/05/20 01:23:32;;;;;;;12.60;4.93;;;10.30;99.90;;;;;;5052496;28;20506;-76
2023/05/20 01:25:58;;;;;;;11.93;5.03;;;10.30;99.90;;;;;;5051197;28;20042;-76
2023/05/20 01:28:25;;;;;;;13.75;4.88;;;10.20;99.90;;;;;;5063762;28;20032;-76
2023/05/20 01:30:57;;;;;;;14.73;5.32;;;10.20;99.90;;;;;;5048634;28;20068;-76
2023/05/20 01:33:25;;;;;;;12.40;4.50;;;10.20;99.90;;;;;;5054501;28;20118;-76
2023/05/20 01:35:51;;;;;;;13.15;4.72;;;10.20;99.90;;;;;;5029643;28;20489;-76
2023/05/20 01:38:18;;;;;;;11.40;4.53;;;10.20;99.90;;;;;;5047398;28;20826;-76
2023/05/20 01:40:46;;;;;;;12.55;5.13;;;10.20;99.90;;;;;;5051022;28;20310;-76
2023/05/20 01:43:12;;;;;;;11.18;4.63;;;10.20;99.90;;;;;;5053572;28;20111;-76
2023/05/20 01:45:41;;;;;;;11.98;4.32;;;10.20;99.90;;;;;;5040625;28;20040;-76
2023/05/20 01:48:11;;;;;;;13.55;5.18;;;10.20;99.90;;;;;;5060942;28;20040;-76
2023/05/20 01:50:38;;;;;;;14.75;4.90;;;10.20;99.90;;;;;;5050846;28;20075;-75
2023/05/20 01:53:03;;;;;;;12.52;5.00;;;10.20;99.90;;;;;;5034323;28;20047;-75
2023/05/20 01:55:29;;;;;;;10.02;4.75;;;10.20;99.90;;;;;;5043585;28;20182;-76
2023/05/20 01:57:55;;;;;;;12.35;4.53;;;10.20;99.90;;;;;;5043463;28;20059;-76
2023/05/20 02:00:20;;;;;;;12.88;4.72;;;10.10;99.90;;;;;;5059697;28;20079;-76
2023/05/20 02:02:46;;;;;;;12.70;5.13;;;10.20;99.90;;;;;;5021874;28;20133;-76
2023/05/20 02:05:12;;;;;;;11.55;5.20;;;10.10;99.90;;;;;;5033036;28;20050;-76
2023/05/20 02:07:38;;;;;;;14.27;5.07;;;10.10;99.90;;;;;;5045028;28;20039;-76
2023/05/20 02:10:04;;;;;;;13.15;4.80;;;10.10;99.90;;;;;;5030618;28;20383;-76
2023/05/20 02:12:30;;;;;;;13.15;5.03;;;10.10;99.90;;;;;;5059181;28;20040;-76
2023/05/20 02:14:55;;;;;;;13.30;5.38;;;10.10;99.90;;;;;;5057128;28;20038;-76
2023/05/20 02:17:21;;;;;;;11.13;5.05;;;10.00;99.90;;;;;;5039432;28;20068;-76
2023/05/20 02:19:47;;;;;;;11.82;4.43;;;10.00;99.90;;;;;;5040455;28;20509;-76
2023/05/20 02:22:13;;;;;;;11.68;4.57;;;10.00;99.90;;;;;;5050485;28;20040;-76
2023/05/20 02:24:39;;;;;;;12.70;4.80;;;10.00;99.90;;;;;;5053767;28;20044;-76
2023/05/20 02:27:05;;;;;;;12.35;5.22;;;10.00;99.90;;;;;;5051034;28;20036;-76
2023/05/20 02:29:31;;;;;;;10.93;5.05;;;10.00;99.90;;;;;;5052586;28;20089;-75
2023/05/20 02:31:57;;;;;;;12.60;5.22;;;10.00;99.90;;;;;;5054519;28;20048;-76
2023/05/20 02:34:24;;;;;;;13.23;5.40;;;10.00;99.90;;;;;;5051040;28;20563;-76
2023/05/20 02:36:51;;;;;;;13.50;4.68;;;9.90;99.90;;;;;;5037340;28;20287;-76
2023/05/20 02:39:17;;;;;;;12.27;4.85;;;10.00;99.90;;;;;;5053562;28;20040;-76
2023/05/20 02:41:43;;;;;;;13.27;4.90;;;10.00;99.90;;;;;;5042718;28;20028;-76
2023/05/20 02:44:08;;;;;;;12.85;4.88;;;10.00;99.90;;;;;;5058837;28;20048;-75
2023/05/20 02:46:34;;;;;;;13.93;5.07;;;10.00;99.90;;;;;;5058881;28;20062;-76
2023/05/20 02:49:00;;;;;;;12.32;4.80;;;10.00;99.90;;;;;;5036010;28;20122;-76
2023/05/20 02:51:26;;;;;;;10.88;4.70;;;10.00;99.90;;;;;;5039882;28;20040;-76
2023/05/20 02:53:51;;;;;;;12.05;4.90;;;10.00;99.90;;;;;;5046486;28;20405;-76
2023/05/20 02:56:20;;;;;;;9.52;3.92;;;10.00;99.90;;;;;;5061181;28;20043;-76
2023/05/20 02:58:47;;;;;;;14.00;4.72;;;10.10;99.90;;;;;;5043789;28;20050;-76
2023/05/20 03:01:12;;;;;;;12.13;4.57;;;10.10;99.90;;;;;;5071627;28;20060;-76
2023/05/20 03:03:39;;;;;;;11.10;4.53;;;10.10;99.90;;;;;;5037938;28;20452;-76
2023/05/20 03:06:08;;;;;;;10.30;4.07;;;10.00;99.90;;;;;;5045041;28;20031;-76
2023/05/20 03:08:35;;;;;;;10.65;4.68;;;10.00;99.90;;;;;;5059280;28;20120;-76
2023/05/20 03:11:00;;;;;;;14.50;4.50;;;10.00;99.90;;;;;;5043437;28;20036;-76
2023/05/20 03:13:26;;;;;;;12.60;4.40;;;9.00;99.90;;;;;;5063948;28;20114;-76
2023/05/20 03:15:52;;;;;;;13.85;4.50;;;9.90;99.90;;;;;;5057415;28;20086;-76
2023/05/20 03:18:18;;;;;;;10.10;4.00;;;9.90;99.90;;;;;;5037192;28;20139;-76
2023/05/20 03:20:45;;;;;;;10.70;4.93;;;9.90;99.90;;;;;;5053542;28;20493;-76
2023/05/20 03:23:11;;;;;;;10.48;4.30;;;9.90;99.90;;;;;;5059876;28;20115;-76
2023/05/20 03:25:37;;;;;;;11.38;4.78;;;9.70;99.90;;;;;;5061358;28;20119;-76
2023/05/20 03:28:04;;;;;;;12.70;4.63;;;9.80;99.90;;;;;;5061848;28;20036;-76
2023/05/20 03:30:30;;;;;;;11.18;4.20;;;9.80;99.90;;;;;;5045603;28;20039;-76
2023/05/20 03:32:57;;;;;;;11.00;4.35;;;9.80;99.90;;;;;;5059078;28;20050;-76
2023/05/20 03:35:23;;;;;;;10.88;4.38;;;9.90;99.90;;;;;;5037682;28;20105;-76
2023/05/20 03:37:50;;;;;;;9.98;4.18;;;9.80;99.90;;;;;;5039271;28;20440;-76
2023/05/20 03:40:16;;;;;;;10.75;4.40;;;9.90;99.90;;;;;;5061073;28;20039;-76
2023/05/20 03:42:42;;;;;;;10.65;4.07;;;9.90;99.90;;;;;;5060552;28;20151;-76
2023/05/20 03:45:08;;;;;;;10.85;3.90;;;10.00;99.90;;;;;;5059417;28;20040;-76
2023/05/20 03:47:33;;;;;;;11.00;4.38;;;9.90;99.90;;;;;;5055811;28;20070;-76
2023/05/20 03:49:59;;;;;;;11.05;4.10;;;10.00;99.90;;;;;;5055574;28;20486;-76
2023/05/20 03:52:25;;;;;;;9.10;3.45;;;10.00;99.90;;;;;;5058657;28;20123;-76
2023/05/20 03:54:52;;;;;;;10.93;3.90;;;10.10;99.90;;;;;;5036135;28;20330;-76
2023/05/20 03:57:18;;;;;;;9.80;3.60;;;10.10;99.90;;;;;;5040483;28;20031;-76
2023/05/20 03:59:44;;;;;;;9.50;3.53;;;10.10;99.90;;;;;;5060747;28;20074;-76
2023/05/20 04:02:10;;;;;;;9.98;3.60;;;10.20;99.90;;;;;;5060165;28;21970;-76
2023/05/20 04:04:36;;;;;;;11.07;3.85;;;10.20;99.90;;;;;;5044727;28;20040;-76
2023/05/20 04:07:03;;;;;;;8.38;3.42;;;10.30;99.90;;;;;;5060222;28;20047;-76
2023/05/20 04:09:29;;;;;;;9.80;3.83;;;10.30;99.90;;;;;;5061804;28;20412;-76
2023/05/20 04:11:55;;;;;;;7.72;3.03;;;10.40;99.90;;;;;;5038056;28;20461;-76
2023/05/20 04:14:21;;;;;;;7.60;3.08;;;10.40;99.90;;;;;;5027599;28;20045;-76
2023/05/20 04:16:49;;;;;;;10.98;3.60;;;10.40;99.90;;;;;;5058464;28;20071;-76
2023/05/20 04:19:14;;;;;;;9.90;3.83;;;10.50;99.90;;;;;;5063919;28;20516;-76
2023/05/20 04:21:43;;;;;;;8.98;2.83;;;10.50;99.90;;;;;;5043351;28;20059;-76
2023/05/20 04:24:08;;;;;;;8.73;2.80;;;10.60;99.90;;;;;;5064826;28;20032;-76
2023/05/20 04:26:34;;;;;;;8.10;2.75;;;10.70;99.90;;;;;;5057818;28;20041;-76
2023/05/20 04:29:03;;;;;;;8.63;2.72;;;10.80;99.90;;;;;;5047703;28;20044;-76
2023/05/20 04:31:29;;;;;;;8.38;2.63;;;10.80;99.90;;;;;;5031914;28;20041;-76
2023/05/20 04:33:56;;;;;;;7.88;2.67;;;10.90;99.90;;;;;;5041619;28;20039;-76
2023/05/20 04:36:27;;;;;;;9.50;2.40;;;10.90;99.90;;;;;;5061054;28;20437;-75
2023/05/20 04:38:54;;;;;;;8.20;2.65;;;10.90;99.90;;;;;;5060441;28;20121;-76
2023/05/20 04:41:19;;;;;;;8.38;2.50;;;11.00;99.90;;;;;;5045504;28;20036;-76
2023/05/20 04:43:45;;;;;;;7.25;2.60;;;10.90;99.90;;;;;;5045935;28;20054;-76
2023/05/20 04:46:11;;;;;;;8.43;2.70;;;11.00;99.90;;;;;;5064282;28;20478;-76
2023/05/20 04:48:37;;;;;;;7.22;2.50;;;11.00;99.90;;;;;;5064440;28;20165;-76
2023/05/20 04:51:03;;;;;;;7.88;2.47;;;11.00;99.90;;;;;;5063056;28;20039;-76
2023/05/20 04:53:29;;;;;;;8.63;2.67;;;11.00;99.90;;;;;;5062070;28;20039;-76
2023/05/20 04:55:55;;;;;;;8.63;2.75;;;11.10;99.90;;;;;;5046672;28;20398;-75
2023/05/20 04:58:23;;;;;;;8.40;2.78;;;11.10;99.90;;;;;;5064032;28;20043;-76
2023/05/20 05:00:50;;;;;;;7.68;2.50;;;11.10;99.90;;;;;;5054984;28;20062;-76
2023/05/20 05:03:16;;;;;;;10.00;2.50;;;11.20;99.90;;;;;;5067856;28;20134;-76
2023/05/20 05:05:42;;;;;;;8.25;2.40;;;11.20;99.90;;;;;;5043587;28;20477;-76
2023/05/20 05:08:10;;;;;;;8.60;2.55;;;11.30;99.90;;;;;;5057576;28;20047;-76
2023/05/20 05:10:36;;;;;;;9.02;2.72;;;11.30;99.90;;;;;;5060396;28;20063;-76
2023/05/20 05:13:02;;;;;;;8.63;2.60;;;11.30;99.90;;;;;;5048031;28;20123;-76
2023/05/20 05:15:28;;;;;;;7.30;2.50;;;11.40;99.90;;;;;;5059282;28;20116;-76
2023/05/20 05:17:54;;;;;;;8.77;2.42;;;11.50;99.90;;;;;;5057324;28;20044;-76
2023/05/20 05:20:20;;;;;;;8.57;2.50;;;11.50;99.90;;;;;;5049155;28;20032;-76
2023/05/20 05:22:45;;;;;;;7.40;2.40;;;11.60;99.90;;;;;;5044494;28;20479;-76
2023/05/20 05:25:12;;;;;;;7.10;2.28;;;11.70;99.90;;;;;;5037930;28;20039;-76
2023/05/20 05:27:38;;;;;;;6.97;2.28;;;12.00;99.90;;;;;;5064123;28;20044;-76
2023/05/20 05:30:06;;;;;;;6.75;2.17;;;12.20;99.90;;;;;;5053698;28;20566;-75
2023/05/20 05:32:31;;;;;;;6.90;2.00;;;12.40;99.90;;;;;;5069656;28;20081;-76
2023/05/20 05:34:57;;;;;;;8.18;1.98;;;12.50;99.90;;;;;;5037148;28;20696;-76
2023/05/20 05:37:23;;;;;;;8.57;2.70;;;12.60;99.90;;;;;;5043683;28;20028;-76
2023/05/20 05:39:49;;;;;;;7.25;2.10;;;12.70;99.90;;;;;;5053195;28;20096;-75
2023/05/20 05:42:15;;;;;;;6.20;2.20;;;12.80;99.90;;;;;;5055237;28;20490;-76
2023/05/20 05:44:40;;;;;;;7.85;2.00;;;12.80;99.90;;;;;;5040703;28;20119;-75
2023/05/20 05:47:06;;;;;;;7.07;2.10;;;12.90;99.90;;;;;;5048380;28;20461;-76
2023/05/20 05:49:33;;;;;;;7.97;2.20;;;13.00;99.90;;;;;;5073127;28;20039;-76
2023/05/20 05:51:58;;;;;;;7.63;1.95;;;13.10;99.90;;;;;;5070746;28;20039;-76
2023/05/20 05:54:25;;;;;;;6.63;1.90;;;13.10;99.90;;;;;;5056164;28;20043;-76
2023/05/20 05:56:51;;;;;;;6.38;1.80;;;13.20;99.90;;;;;;5068815;28;20044;-76
2023/05/20 05:59:18;;;;;;;6.82;2.08;;;13.30;99.90;;;;;;5055868;28;20040;-76
2023/05/20 06:01:44;;;;;;;7.28;2.00;;;13.40;99.90;;;;;;5032068;28;20324;-76
2023/05/20 06:04:10;;;;;;;5.72;1.98;;;13.40;99.90;;;;;;5050238;28;21420;-76
2023/05/20 06:06:36;;;;;;;8.20;2.05;;;13.50;99.90;;;;;;5060991;28;20032;-76
2023/05/20 06:09:02;;;;;;;6.60;1.90;;;13.60;99.90;;;;;;5044327;28;20036;-76
2023/05/20 06:11:28;;;;;;;6.50;2.00;;;13.60;99.90;;;;;;5062850;28;20040;-76
2023/05/20 06:13:54;;;;;;;7.28;2.33;;;13.70;99.90;;;;;;5081686;28;20043;-76
2023/05/20 06:16:20;;;;;;;6.00;1.85;;;13.80;99.90;;;;;;5068024;28;20600;-76
2023/05/20 06:18:48;;;;;;;5.45;1.98;;;13.80;99.90;;;;;;5055765;28;20064;-76
2023/05/20 06:21:15;;;;;;;5.13;1.90;;;13.90;99.90;;;;;;5056743;28;20036;-75
2023/05/20 06:23:40;;;;;;;6.15;2.00;;;13.90;99.90;;;;;;5051179;28;20028;-76
2023/05/20 06:26:06;;;;;;;7.05;2.22;;;13.90;99.90;;;;;;5067745;28;20043;-76
2023/05/20 06:28:32;;;;;;;7.03;2.22;;;13.90;99.90;;;;;;5072580;28;20044;-75
2023/05/20 06:30:58;;;;;;;7.18;2.00;;;13.90;99.90;;;;;;5049616;28;20047;-75
2023/05/20 06:33:24;;;;;;;8.85;2.38;;;14.00;99.90;;;;;;5087131;28;20497;-76
2023/05/20 06:35:51;;;;;;;6.32;2.10;;;14.10;99.90;;;;;;5046153;28;20040;-76
2023/05/20 06:38:17;;;;;;;6.55;2.03;;;14.10;99.90;;;;;;5057737;28;20036;-76
2023/05/20 06:40:43;;;;;;;5.80;2.00;;;14.20;99.90;;;;;;5068351;28;20068;-76
2023/05/20 06:43:09;;;;;;;5.75;1.80;;;14.20;99.90;;;;;;5050012;28;20067;-76
2023/05/20 06:45:35;;;;;;;8.13;2.10;;;14.30;99.90;;;;;;5063896;28;20040;-76
2023/05/20 06:48:00;;;;;;;6.55;2.00;;;14.30;99.90;;;;;;5051381;28;20040;-75
2023/05/20 06:50:27;;;;;;;7.38;2.03;;;14.40;99.90;;;;;;5044387;28;20094;-76
2023/05/20 06:52:53;;;;;;;7.43;1.90;;;14.40;99.90;;;;;;5049320;28;20473;-76
2023/05/20 06:55:19;;;;;;;8.05;1.92;;;14.40;99.90;;;;;;5055034;28;20048;-76
2023/05/20 06:57:45;;;;;;;8.52;2.28;;;14.50;99.90;;;;;;5068058;28;20048;-75
2023/05/20 07:00:12;;;;;;;8.55;2.08;;;14.50;99.90;;;;;;5059153;28;20054;-75
2023/05/20 07:02:38;;;;;;;6.13;1.70;;;14.50;99.90;;;;;;5047880;28;20045;-76
2023/05/20 07:05:05;;;;;;;8.15;1.90;;;14.60;99.90;;;;;;5057182;28;20057;-76
2023/05/20 07:07:31;;;;;;;6.90;2.00;;;14.60;99.90;;;;;;5063391;28;20049;-76
2023/05/20 07:09:57;;;;;;;7.13;2.00;;;14.70;99.90;;;;;;5059197;28;20456;-76
2023/05/20 07:12:23;;;;;;;5.32;1.80;;;14.80;99.90;;;;;;5041198;28;20040;-75
2023/05/20 07:14:48;;;;;;;6.88;2.00;;;14.80;99.90;;;;;;5041366;28;20041;-76
2023/05/20 07:17:14;;;;;;;7.50;1.90;;;14.90;99.90;;;;;;5077161;28;20036;-76
2023/05/20 07:19:40;;;;;;;6.78;2.22;;;14.90;99.90;;;;;;5041804;28;20051;-75
2023/05/20 07:22:06;;;;;;;7.35;2.25;;;15.10;99.90;;;;;;5054553;28;20037;-76
2023/05/20 07:24:32;;;;;;;8.50;1.98;;;15.10;99.90;;;;;;5038033;28;20040;-76
2023/05/20 07:26:57;;;;;;;5.97;1.90;;;15.20;99.90;;;;;;5039295;28;20076;-77
2023/05/20 07:29:23;;;;;;;5.75;1.90;;;15.30;99.90;;;;;;5083275;28;20541;-76
2023/05/20 07:31:49;;;;;;;6.53;2.17;;;15.40;99.90;;;;;;5060855;28;20049;-76
2023/05/20 07:34:14;;;;;;;7.03;2.10;;;15.40;99.90;;;;;;5073534;28;20255;-76
2023/05/20 07:36:40;;;;;;;6.45;2.03;;;15.40;99.90;;;;;;5058747;28;20124;-76
2023/05/20 07:39:07;;;;;;;6.15;1.80;;;15.50;99.90;;;;;;5038041;28;20043;-76
2023/05/20 07:41:33;;;;;;;5.97;2.00;;;15.50;99.90;;;;;;5052460;28;20036;-76
2023/05/20 07:44:04;;;;;;;8.52;2.13;;;15.60;99.90;;;;;;5038187;28;20403;-76
2023/05/20 07:46:30;;;;;;;6.30;1.95;;;15.50;99.90;;;;;;5055819;28;20116;-76
2023/05/20 07:48:56;;;;;;;9.27;2.00;;;15.60;99.90;;;;;;5063210;28;20116;-76
2023/05/20 07:51:22;;;;;;;6.65;2.00;;;15.60;99.90;;;;;;5067947;28;20040;-76
2023/05/20 07:53:48;;;;;;;8.20;2.00;;;15.70;99.90;;;;;;5068342;28;20044;-76
2023/05/20 07:56:15;;;;;;;8.55;2.05;;;15.80;99.90;;;;;;5062322;28;20053;-76
2023/05/20 07:58:41;;;;;;;6.28;2.10;;;15.90;99.90;;;;;;5048993;28;20049;-76
2023/05/20 08:01:08;;;;;;;5.93;2.00;;;15.90;99.90;;;;;;5046239;28;20510;-76
2023/05/20 08:03:37;;;;;;;6.97;2.45;;;15.90;99.90;;;;;;5063452;28;20052;-76
2023/05/20 08:06:03;;;;;;;8.10;2.20;;;16.00;99.90;;;;;;5039687;28;20036;-76
2023/05/20 08:08:32;;;;;;;4.72;1.67;;;16.10;99.90;;;;;;5052450;28;20040;-76
2023/05/20 08:10:57;;;;;;;7.95;2.13;;;16.10;99.90;;;;;;5072643;28;20037;-76
2023/05/20 08:13:24;;;;;;;6.13;2.05;;;16.10;99.90;;;;;;5039968;28;20575;-76
2023/05/20 08:15:52;;;;;;;8.05;2.00;;;16.20;99.90;;;;;;5046377;28;20037;-76
2023/05/20 08:18:18;;;;;;;6.00;1.83;;;16.30;99.90;;;;;;5055620;28;20289;-76
2023/05/20 08:20:43;;;;;;;9.27;2.22;;;16.30;99.90;;;;;;5057758;28;20338;-76
2023/05/20 08:23:09;;;;;;;5.45;2.00;;;16.40;99.90;;;;;;5057979;28;20148;-76
2023/05/20 08:25:37;;;;;;;6.80;1.90;;;16.50;99.90;;;;;;5050359;28;20067;-75
2023/05/20 08:28:04;;;;;;;7.85;2.28;;;16.60;99.90;;;;;;5048041;28;20048;-76
2023/05/20 08:30:30;;;;;;;8.60;2.10;;;16.60;99.90;;;;;;5069157;28;20435;-76
2023/05/20 08:32:56;;;;;;;9.05;2.10;;;16.70;99.90;;;;;;5050371;28;20088;-76
2023/05/20 08:35:25;;;;;;;7.10;2.17;;;16.70;99.90;;;;;;5043179;28;20625;-76
2023/05/20 08:37:54;;;;;;;8.63;2.00;;;16.70;99.90;;;;;;5037982;28;20044;-76
2023/05/20 08:40:21;;;;;;;7.50;2.20;;;16.80;99.90;;;;;;5062337;28;20444;-76
2023/05/20 08:42:48;;;;;;;9.77;2.10;;;16.90;99.90;;;;;;5038295;28;20111;-76
2023/05/20 08:45:20;;;;;;;6.03;2.00;;;17.00;99.90;;;;;;5041941;28;20040;-76
2023/05/20 08:47:46;;;;;;;7.00;2.10;;;17.00;99.90;;;;;;5042083;28;20032;-77
2023/05/20 08:50:13;;;;;;;8.30;2.00;;;17.10;99.90;;;;;;5061249;28;20434;-75
2023/05/20 08:52:45;;;;;;;10.65;2.10;;;17.10;99.90;;;;;;5039110;28;20044;-76
2023/05/20 08:55:21;;;;;;;7.45;2.10;;;17.20;99.90;;;;;;5065641;28;20079;-75
2023/05/20 08:57:53;;;;;;;7.80;1.98;;;17.30;99.90;;;;;;5040750;28;20037;-76
2023/05/20 09:00:22;;;;;;;6.65;2.10;;;17.40;99.90;;;;;;5053093;28;20075;-76
2023/05/20 09:02:48;;;;;;;6.47;2.20;;;17.40;99.90;;;;;;5038745;28;20053;-76
2023/05/20 09:05:14;;;;;;;6.13;1.90;;;17.30;99.90;;;;;;5027889;28;20482;-76
2023/05/20 09:07:42;;;;;;;9.40;2.10;;;17.50;99.90;;;;;;5067667;28;20040;-76
2023/05/20 09:10:08;;;;;;;8.25;2.33;;;17.60;99.90;;;;;;5043539;28;20041;-77
2023/05/20 09:12:34;;;;;;;8.60;2.40;;;17.60;99.90;;;;;;5030107;28;20044;-76
2023/05/20 09:15:00;;;;;;;6.47;2.22;;;17.80;99.90;;;;;;5058930;28;20045;-76
2023/05/20 09:17:26;;;;;;;7.68;2.20;;;17.90;99.90;;;;;;5069329;28;20051;-76
2023/05/20 09:19:52;;;;;;;6.72;2.08;;;17.90;99.90;;;;;;5057666;28;20045;-76
2023/05/20 09:22:26;;;;;;;7.05;2.25;;;18.00;99.90;;;;;;5047491;28;20047;-76
2023/05/20 09:24:52;;;;;;;8.60;2.30;;;18.00;99.90;;;;;;5053023;28;20055;-77
2023/05/20 09:27:21;;;;;;;6.90;2.10;;;17.90;99.90;;;;;;5061660;28;20041;-76
2023/05/20 09:29:50;;;;;;;5.90;2.00;;;18.00;99.90;;;;;;5066738;28;20070;-76
2023/05/20 09:32:18;;;;;;;8.07;2.08;;;18.10;99.90;;;;;;5049171;28;20171;-76
2023/05/20 09:34:46;;;;;;;6.97;2.40;;;18.10;99.90;;;;;;5055423;28;20041;-76
2023/05/20 09:37:13;;;;;;;8.50;2.50;;;18.20;99.90;;;;;;5054247;28;20212;-76
2023/05/20 09:39:55;;;;;;;8.13;2.28;;;18.20;99.90;;;;;;5041616;28;20421;-76
2023/05/20 09:42:25;;;;;;;6.25;2.10;;;18.30;99.90;;;;;;5075595;28;20546;-75
2023/05/20 09:44:56;;;;;;;8.00;2.30;;;18.30;99.90;;;;;;5039187;28;20044;-76
2023/05/20 09:47:24;;;;;;;7.18;2.20;;;18.30;99.90;;;;;;5085930;28;20036;-77
2023/05/20 09:49:51;;;;;;;8.20;2.40;;;18.30;99.90;;;;;;5048847;28;20048;-76
2023/05/20 09:52:17;;;;;;;9.65;2.55;;;18.30;99.90;;;;;;5067423;28;20068;-77
2023/05/20 09:54:44;;;;;;;6.63;2.22;;;18.30;99.90;;;;;;5073117;28;20044;-76
2023/05/20 09:57:09;;;;;;;7.43;2.40;;;18.30;99.90;;;;;;5042734;28;20425;-76
2023/05/20 09:59:37;;;;;;;9.48;2.25;;;18.40;99.90;;;;;;5055225;28;20029;-77
2023/05/20 10:02:05;;;;;;;7.80;2.30;;;18.40;99.90;;;;;;5068364;28;20061;-76
2023/05/20 10:04:33;;;;;;;6.85;2.20;;;18.50;99.90;;;;;;5040236;28;20380;-76
2023/05/20 10:07:02;;;;;;;8.95;2.30;;;18.60;99.90;;;;;;5060535;28;20107;-76
2023/05/20 10:09:49;;;;;;;7.63;2.47;;;18.50;99.90;;;;;;5055157;28;20490;-77
2023/05/20 10:12:36;;;;;;;7.43;2.30;;;18.60;99.90;;;;;;5051168;28;20079;-76
2023/05/20 10:15:14;;;;;;;6.53;2.10;;;18.70;99.90;;;;;;5052749;28;20060;-76
2023/05/20 10:18:07;;;;;;;7.63;2.10;;;18.80;99.90;;;;;;5056343;28;20040;-78
2023/05/20 10:20:47;;;;;;;6.85;2.38;;;18.90;99.90;;;;;;5056102;28;20025;-76
2023/05/20 10:23:29;;;;;;;5.75;2.10;;;18.90;99.90;;;;;;5050849;28;20033;-77
2023/05/20 10:25:56;;;;;;;12.27;2.85;;;19.00;99.90;;;;;;5039789;28;20108;-76
2023/05/20 10:28:37;;;;;;;8.80;2.30;;;19.10;99.90;;;;;;5054061;28;20049;-76
2023/05/20 10:31:17;;;;;;;8.48;2.50;;;19.20;99.90;;;;;;5059584;28;20040;-76
2023/05/20 10:33:44;;;;;;;8.30;2.40;;;19.40;99.90;;;;;;5068026;28;20122;-76
2023/05/20 10:36:32;;;;;;;8.00;2.30;;;19.20;99.90;;;;;;5051359;28;20052;-77
2023/05/20 10:38:59;;;;;;;7.97;2.10;;;19.20;99.90;;;;;;5063194;28;20049;-77
2023/05/20 10:41:27;;;;;;;9.40;2.28;;;19.10;99.90;;;;;;5067678;28;20124;-76
2023/05/20 10:44:04;;;;;;;8.30;2.42;;;19.20;99.90;;;;;;5066777;28;20418;-76
2023/05/20 10:46:31;;;;;;;7.40;2.22;;;19.10;99.90;;;;;;5045763;28;20471;-76
2023/05/20 10:48:58;;;;;;;7.45;2.42;;;18.80;99.90;;;;;;5047523;28;20076;-77
2023/05/20 10:51:24;;;;;;;7.40;2.40;;;18.60;99.90;;;;;;5062807;28;20033;-76
2023/05/20 10:53:55;;;;;;;8.15;2.13;;;18.70;99.90;;;;;;5063219;28;20052;-76
2023/05/20 10:56:25;;;;;;;7.63;2.30;;;18.70;99.90;;;;;;5062007;28;20115;-76
2023/05/20 10:59:17;;;;;;;7.15;2.20;;;18.80;99.90;;;;;;5053514;28;20064;-76
2023/05/20 11:01:44;;;;;;;6.55;2.20;;;19.10;99.90;;;;;;5084280;28;20098;-76
2023/05/20 11:04:11;;;;;;;8.10;2.50;;;19.20;99.90;;;;;;5051247;28;20032;-76
2023/05/20 11:06:37;;;;;;;10.32;2.20;;;19.30;99.90;;;;;;5054255;28;20068;-76
2023/05/20 11:09:06;;;;;;;9.35;2.35;;;19.30;99.90;;;;;;5067263;28;20674;-76
2023/05/20 11:11:32;;;;;;;7.28;2.20;;;19.30;99.90;;;;;;5050637;28;20400;-77
2023/05/20 11:13:59;;;;;;;6.18;2.05;;;19.40;99.90;;;;;;5055075;28;20125;-76
2023/05/20 11:16:25;;;;;;;8.68;2.35;;;19.60;99.90;;;;;;5036191;28;20395;-77
2023/05/20 11:18:51;;;;;;;7.78;2.28;;;19.60;99.90;;;;;;5069652;28;20052;-76
2023/05/20 11:21:19;;;;;;;7.38;2.50;;;19.40;99.90;;;;;;5055795;28;20048;-76
2023/05/20 11:23:44;;;;;;;7.45;2.33;;;19.40;99.90;;;;;;5064488;28;20078;-76
2023/05/20 11:26:10;;;;;;;7.53;2.45;;;19.40;99.90;;;;;;5047733;28;20070;-76
2023/05/20 11:28:36;;;;;;;8.15;2.30;;;19.40;99.90;;;;;;5035341;28;20049;-77
2023/05/20 11:31:03;;;;;;;7.30;2.30;;;19.60;99.90;;;;;;5035907;28;20523;-77
2023/05/20 11:33:29;;;;;;;8.52;2.47;;;19.60;99.90;;;;;;5070641;28;20072;-77
2023/05/20 11:35:56;;;;;;;7.25;2.40;;;19.60;99.90;;;;;;5051309;28;20446;-76
2023/05/20 11:38:22;;;;;;;8.93;2.47;;;19.50;99.90;;;;;;5061500;28;20075;-76
2023/05/20 11:40:54;;;;;;;7.32;2.60;;;19.60;99.90;;;;;;5056621;28;20032;-76
2023/05/20 11:43:21;;;;;;;7.18;2.03;;;19.50;99.90;;;;;;5059525;28;20405;-77
2023/05/20 11:45:53;;;;;;;10.57;2.83;;;19.60;99.90;;;;;;5070295;28;20081;-77
2023/05/20 11:48:19;;;;;;;10.30;3.25;;;19.70;99.90;;;;;;5069943;28;20105;-76
2023/05/20 11:50:46;;;;;;;10.10;2.70;;;19.60;99.90;;;;;;5065197;28;20044;-77
2023/05/20 11:53:20;;;;;;;10.50;2.90;;;19.60;99.90;;;;;;5052874;28;20447;-77
2023/05/20 11:55:57;;;;;;;11.95;3.20;;;19.30;99.90;;;;;;5053850;28;20501;-77
2023/05/20 11:58:25;;;;;;;9.27;3.13;;;19.10;99.90;;;;;;5070861;28;20040;-76
2023/05/20 12:00:51;;;;;;;8.75;3.00;;;18.80;99.90;;;;;;5053697;28;20150;-77
2023/05/20 12:03:17;;;;;;;10.20;2.97;;;18.90;99.90;;;;;;5064405;28;20354;-76
2023/05/20 12:05:43;;;;;;;9.07;3.08;;;19.10;99.90;;;;;;5057652;28;20040;-76
2023/05/20 12:08:09;;;;;;;8.60;2.78;;;19.10;99.90;;;;;;5084425;28;20102;-77
2023/05/20 12:10:38;;;;;;;10.13;3.28;;;19.20;99.90;;;;;;5048171;28;20087;-77
2023/05/20 12:13:07;;;;;;;8.57;3.47;;;19.30;99.90;;;;;;5047208;28;20511;-77
2023/05/20 12:15:35;;;;;;;9.73;3.00;;;19.30;99.90;;;;;;5059325;28;20094;-77
2023/05/20 12:18:00;;;;;;;11.48;3.40;;;19.40;99.90;;;;;;5067630;28;20044;-77
2023/05/20 12:20:26;;;;;;;12.20;3.58;;;19.40;99.90;;;;;;5034562;28;20546;-77
2023/05/20 12:22:52;;;;;;;9.45;3.28;;;19.30;99.90;;;;;;5054512;28;20040;-76
2023/05/20 12:25:19;;;;;;;9.65;3.20;;;19.10;99.90;;;;;;5039825;28;20041;-76
2023/05/20 12:27:47;;;;;;;9.95;3.40;;;19.00;99.90;;;;;;5079663;28;20068;-77
2023/05/20 12:30:15;;;;;;;10.02;3.58;;;19.10;99.90;;;;;;5060977;28;20043;-76
2023/05/20 12:32:42;;;;;;;11.85;3.60;;;19.10;99.90;;;;;;5041146;28;20465;-76
2023/05/20 12:35:08;;;;;;;9.52;3.28;;;19.10;99.90;;;;;;5066644;28;20095;-76
2023/05/20 12:37:36;;;;;;;11.77;3.30;;;19.20;99.90;;;;;;5078462;28;20056;-77
2023/05/20 12:40:06;;;;;;;10.38;3.60;;;19.00;99.90;;;;;;5067224;28;20112;-76
2023/05/20 12:42:39;;;;;;;11.00;3.53;;;19.00;99.90;;;;;;5062564;28;20086;-77